Time;durP1;ratioP1;P1;durP2;ratioP2;P2;SDS_P1;SDS_P2;PMS_P1;PMS_P2;Temp;Humidity;BMP_temperature;BMP_pressure;BME280_temperature;BME280_humidity;BME280_pressure;Samples;Min_cycle;Max_cycle;Signal;HPM_P1;HPM_P2
2021/10/21 00:01:57;;;;;;;4.43;3.83;;;16.20;99.90;;;;;;4997209;28;20184;-81
2021/10/21 00:04:24;;;;;;;4.27;3.20;;;16.20;99.90;;;;;;4999057;28;20202;-81
2021/10/21 00:06:50;;;;;;;3.67;3.30;;;16.20;99.90;;;;;;4997264;28;20205;-81
2021/10/21 00:09:15;;;;;;;5.10;3.37;;;16.20;99.90;;;;;;4998659;28;20196;-81
2021/10/21 00:11:41;;;;;;;5.10;3.37;;;16.10;99.90;;;;;;4998655;28;20186;-81
2021/10/21 00:14:07;;;;;;;3.50;3.23;;;16.10;99.90;;;;;;4996817;28;20750;-81
2021/10/21 00:16:32;;;;;;;3.90;3.50;;;16.10;99.90;;;;;;4996670;28;20184;-81
2021/10/21 00:18:58;;;;;;;3.13;2.93;;;16.10;99.90;;;;;;4996440;28;20207;-81
2021/10/21 00:21:24;;;;;;;3.80;3.27;;;16.10;99.90;;;;;;4998025;28;20187;-81
2021/10/21 00:23:50;;;;;;;3.13;2.83;;;16.10;99.90;;;;;;4997966;28;20206;-81
2021/10/21 00:26:16;;;;;;;3.60;3.30;;;16.20;99.90;;;;;;5000569;28;20174;-81
2021/10/21 00:28:41;;;;;;;5.00;3.00;;;16.20;99.90;;;;;;5000531;28;20188;-81
2021/10/21 00:31:07;;;;;;;3.40;3.10;;;16.20;99.90;;;;;;4999064;28;20196;-81
2021/10/21 00:33:33;;;;;;;3.43;3.17;;;16.20;99.90;;;;;;4998124;28;20677;-81
2021/10/21 00:35:59;;;;;;;3.50;3.20;;;16.20;99.90;;;;;;4998210;28;20183;-81
2021/10/21 00:38:25;;;;;;;4.20;2.90;;;16.20;99.90;;;;;;4998336;28;20203;-81
2021/10/21 00:40:51;;;;;;;3.10;2.90;;;16.20;99.90;;;;;;4997985;28;20283;-81
2021/10/21 00:43:16;;;;;;;3.47;3.17;;;16.20;99.90;;;;;;4998645;28;20182;-81
2021/10/21 00:45:42;;;;;;;3.77;2.90;;;16.20;99.90;;;;;;4996944;28;20176;-81
2021/10/21 00:48:09;;;;;;;3.27;2.97;;;16.20;99.90;;;;;;4996898;28;20278;-81
2021/10/21 00:50:36;;;;;;;4.23;3.03;;;16.30;99.90;;;;;;4995573;28;20715;-81
2021/10/21 00:53:03;;;;;;;3.80;3.50;;;16.30;99.90;;;;;;4997075;28;20203;-81
2021/10/21 00:55:30;;;;;;;3.80;3.50;;;16.30;99.90;;;;;;4997461;28;20259;-80
2021/10/21 00:57:57;;;;;;;3.80;3.50;;;16.30;99.90;;;;;;4997082;28;20180;-80
2021/10/21 01:00:23;;;;;;;4.17;3.57;;;16.20;99.90;;;;;;4997892;28;20669;-80
2021/10/21 01:02:48;;;;;;;4.43;4.00;;;16.10;99.90;;;;;;4997109;28;20180;-80
2021/10/21 01:05:14;;;;;;;3.93;3.63;;;16.00;99.90;;;;;;4998465;28;20253;-80
2021/10/21 01:07:40;;;;;;;5.33;4.10;;;15.90;99.90;;;;;;4996021;28;20180;-78
2021/10/21 01:10:08;;;;;;;4.40;4.00;;;15.80;99.90;;;;;;4992316;28;20213;-81
2021/10/21 01:12:36;;;;;;;4.80;3.80;;;15.70;99.90;;;;;;4978718;28;20180;-80
2021/10/21 01:15:15;;;;;;;4.57;4.17;;;15.60;99.90;;;;;;4993255;28;20232;-81
2021/10/21 01:17:41;;;;;;;5.27;3.90;;;15.50;99.90;;;;;;4992141;28;20639;-80
2021/10/21 01:20:08;;;;;;;5.30;4.60;;;15.40;99.90;;;;;;4985720;28;20231;-80
2021/10/21 01:22:34;;;;;;;5.70;5.03;;;15.40;99.90;;;;;;4997385;28;20176;-80
2021/10/21 01:25:00;;;;;;;5.77;4.57;;;15.40;99.90;;;;;;4987605;28;20251;-80
2021/10/21 01:27:25;;;;;;;6.00;5.10;;;15.30;99.90;;;;;;4985360;28;20663;-80
2021/10/21 01:29:51;;;;;;;8.50;6.40;;;15.30;99.90;;;;;;4980682;28;20228;-80
2021/10/21 01:32:24;;;;;;;7.77;5.27;;;15.20;99.90;;;;;;4980590;28;20183;-80
2021/10/21 01:34:50;;;;;;;6.47;5.63;;;15.10;99.90;;;;;;5001181;28;20212;-79
2021/10/21 01:37:16;;;;;;;14.27;8.90;;;15.00;99.90;;;;;;4986769;28;20705;-80
2021/10/21 01:39:41;;;;;;;14.97;9.30;;;15.10;99.90;;;;;;4989519;28;20213;-80
2021/10/21 01:42:07;;;;;;;12.43;7.33;;;15.00;99.90;;;;;;4996454;28;20255;-80
2021/10/21 01:44:33;;;;;;;7.40;6.30;;;15.10;99.90;;;;;;4996492;28;20538;-80
2021/10/21 01:46:58;;;;;;;8.37;6.63;;;15.00;99.90;;;;;;4996414;28;20185;-81
2021/10/21 01:49:24;;;;;;;9.57;6.87;;;15.00;99.90;;;;;;4996850;28;20535;-81
2021/10/21 01:51:51;;;;;;;6.87;6.03;;;15.00;99.90;;;;;;4994980;28;20171;-80
2021/10/21 01:54:17;;;;;;;5.87;5.27;;;15.00;99.90;;;;;;4996563;28;20196;-80
2021/10/21 01:56:43;;;;;;;6.33;5.83;;;14.90;99.90;;;;;;4992355;28;20663;-79
2021/10/21 01:59:08;;;;;;;6.47;5.87;;;14.90;99.90;;;;;;4992377;28;20200;-81
2021/10/21 02:01:34;;;;;;;6.47;5.60;;;14.90;99.90;;;;;;4989025;28;20749;-80
2021/10/21 02:04:01;;;;;;;8.87;6.80;;;14.90;99.90;;;;;;4997174;28;20204;-80
2021/10/21 02:06:26;;;;;;;8.00;5.33;;;14.90;99.90;;;;;;4998601;28;20168;-80
2021/10/21 02:08:52;;;;;;;8.83;6.97;;;14.90;99.90;;;;;;4999149;28;20188;-80
2021/10/21 02:11:18;;;;;;;7.93;7.10;;;14.90;99.90;;;;;;4999714;28;20211;-80
2021/10/21 02:13:44;;;;;;;6.27;5.23;;;14.80;99.90;;;;;;4998741;28;20204;-80
2021/10/21 02:16:09;;;;;;;6.20;5.23;;;14.80;99.90;;;;;;4997115;28;20180;-80
2021/10/21 02:18:35;;;;;;;5.83;4.97;;;14.80;99.90;;;;;;4997824;28;20204;-80
2021/10/21 02:21:01;;;;;;;5.63;4.60;;;14.80;99.90;;;;;;4999307;28;20183;-81
2021/10/21 02:23:26;;;;;;;6.40;4.97;;;14.80;99.90;;;;;;5001824;28;20195;-80
2021/10/21 02:25:52;;;;;;;5.87;4.70;;;14.70;99.90;;;;;;5000919;28;20176;-80
2021/10/21 02:28:18;;;;;;;4.83;4.43;;;14.70;99.90;;;;;;5001315;28;20187;-81
2021/10/21 02:30:44;;;;;;;5.47;4.97;;;14.70;99.90;;;;;;5001898;28;20665;-81
2021/10/21 02:33:09;;;;;;;5.60;5.03;;;14.70;99.90;;;;;;5000045;28;20183;-80
2021/10/21 02:35:35;;;;;;;5.00;4.53;;;14.70;99.90;;;;;;4995445;28;20188;-80
2021/10/21 02:38:01;;;;;;;5.47;4.97;;;14.70;99.90;;;;;;5000349;28;20637;-80
2021/10/21 02:40:26;;;;;;;5.70;5.00;;;14.70;99.90;;;;;;4999753;28;20176;-80
2021/10/21 02:42:52;;;;;;;4.80;4.40;;;14.70;99.90;;;;;;5000647;28;20175;-80
2021/10/21 02:45:18;;;;;;;5.90;5.23;;;14.60;99.90;;;;;;4999918;28;20196;-80
2021/10/21 02:47:44;;;;;;;5.00;4.60;;;14.60;99.90;;;;;;5001176;28;20186;-80
2021/10/21 02:50:10;;;;;;;4.90;4.50;;;14.50;99.90;;;;;;4999416;28;20182;-80
2021/10/21 02:52:36;;;;;;;4.33;3.97;;;14.50;99.90;;;;;;5001357;28;20184;-80
2021/10/21 02:55:03;;;;;;;5.10;4.70;;;14.50;99.90;;;;;;5001349;28;20667;-80
2021/10/21 02:57:29;;;;;;;4.77;4.37;;;14.50;99.90;;;;;;5001322;28;20176;-81
2021/10/21 02:59:55;;;;;;;5.10;4.70;;;14.50;99.90;;;;;;5001500;28;20211;-80
2021/10/21 03:02:20;;;;;;;5.67;5.17;;;14.50;99.90;;;;;;5001198;28;20175;-80
2021/10/21 03:04:46;;;;;;;5.30;4.80;;;14.60;99.90;;;;;;5000259;28;20233;-81
2021/10/21 03:07:11;;;;;;;6.37;4.40;;;14.50;99.90;;;;;;4999668;28;20556;-80
2021/10/21 03:09:37;;;;;;;5.60;4.67;;;14.60;99.90;;;;;;4999963;28;20237;-80
2021/10/21 03:12:03;;;;;;;5.30;4.90;;;14.60;99.90;;;;;;5000720;28;20179;-80
2021/10/21 03:14:29;;;;;;;5.40;4.90;;;14.60;99.90;;;;;;5001108;28;20207;-80
2021/10/21 03:16:54;;;;;;;7.27;5.57;;;14.60;99.90;;;;;;5003667;28;20534;-80
2021/10/21 03:19:20;;;;;;;5.87;4.73;;;14.60;99.90;;;;;;5001571;28;20203;-81
2021/10/21 03:21:46;;;;;;;6.63;5.10;;;14.60;99.90;;;;;;5001208;28;20548;-80
2021/10/21 03:24:11;;;;;;;5.07;4.63;;;14.60;99.90;;;;;;4999706;28;20203;-80
2021/10/21 03:26:37;;;;;;;6.87;4.50;;;14.50;99.90;;;;;;5001182;28;20187;-80
2021/10/21 03:29:03;;;;;;;5.40;5.00;;;14.60;99.90;;;;;;4998190;28;20180;-80
2021/10/21 03:31:29;;;;;;;4.53;4.00;;;14.60;99.90;;;;;;4997688;28;20204;-80
2021/10/21 03:33:56;;;;;;;4.67;4.27;;;14.60;99.90;;;;;;4997646;28;20714;-80
2021/10/21 03:36:22;;;;;;;4.37;4.07;;;14.60;99.90;;;;;;4997251;28;20698;-80
2021/10/21 03:38:48;;;;;;;4.23;3.87;;;14.60;99.90;;;;;;4997507;28;20897;-80
2021/10/21 03:41:14;;;;;;;3.93;3.63;;;14.60;99.90;;;;;;4996812;28;20246;-81
2021/10/21 03:43:39;;;;;;;5.53;3.07;;;14.60;99.90;;;;;;4997064;28;20199;-81
2021/10/21 03:46:05;;;;;;;4.43;3.90;;;14.60;99.90;;;;;;4997358;28;20267;-81
2021/10/21 03:48:30;;;;;;;4.70;3.90;;;14.60;99.90;;;;;;5000234;28;20182;-82
2021/10/21 03:50:56;;;;;;;4.10;3.80;;;14.60;99.90;;;;;;4999800;28;20260;-81
2021/10/21 03:53:22;;;;;;;5.60;4.20;;;14.50;99.90;;;;;;4998548;28;20193;-82
2021/10/21 03:55:47;;;;;;;4.80;4.33;;;14.50;99.90;;;;;;4999565;28;20188;-82
2021/10/21 03:58:13;;;;;;;4.87;3.77;;;14.50;99.90;;;;;;4998801;28;20208;-82
2021/10/21 04:00:41;;;;;;;4.20;3.80;;;14.40;99.90;;;;;;4995887;28;20186;-81
2021/10/21 04:03:07;;;;;;;5.60;3.90;;;14.40;99.90;;;;;;4998048;28;20179;-82
2021/10/21 04:05:32;;;;;;;5.03;3.93;;;14.30;99.90;;;;;;4999073;28;20274;-81
2021/10/21 04:07:58;;;;;;;5.87;3.70;;;14.30;99.90;;;;;;4996735;28;20176;-82
2021/10/21 04:10:24;;;;;;;3.60;3.03;;;14.30;99.90;;;;;;4998040;28;20202;-82
2021/10/21 04:12:50;;;;;;;2.43;1.93;;;14.30;99.90;;;;;;4998744;28;20180;-82
2021/10/21 04:15:15;;;;;;;1.63;1.50;;;14.30;99.90;;;;;;4996286;28;20557;-82
2021/10/21 04:17:41;;;;;;;1.63;1.10;;;14.30;99.90;;;;;;4997045;28;20208;-81
2021/10/21 04:20:07;;;;;;;1.50;0.80;;;14.10;99.90;;;;;;4996072;28;20206;-81
2021/10/21 04:22:33;;;;;;;2.10;0.90;;;14.00;99.90;;;;;;4995423;28;20267;-81
2021/10/21 04:24:59;;;;;;;1.20;0.50;;;13.70;99.90;;;;;;4995848;28;20234;-81
2021/10/21 04:27:24;;;;;;;0.93;0.57;;;13.60;99.90;;;;;;4996858;28;20230;-80
2021/10/21 04:29:50;;;;;;;1.27;0.67;;;13.50;99.90;;;;;;4996831;28;20182;-81
2021/10/21 04:32:16;;;;;;;0.77;0.40;;;13.30;99.90;;;;;;4998430;28;20183;-81
2021/10/21 04:34:42;;;;;;;1.80;0.63;;;13.30;99.90;;;;;;5000949;28;20218;-81
2021/10/21 04:37:07;;;;;;;3.23;0.40;;;13.20;99.90;;;;;;4998800;28;20198;-81
2021/10/21 04:39:33;;;;;;;4.33;0.70;;;13.00;99.90;;;;;;4999546;28;20204;-81
2021/10/21 04:41:58;;;;;;;2.43;0.60;;;13.00;99.90;;;;;;4998615;28;20208;-82
2021/10/21 04:44:24;;;;;;;7.13;0.77;;;13.00;99.90;;;;;;4996929;28;20214;-81
2021/10/21 04:46:50;;;;;;;3.40;0.97;;;13.00;99.90;;;;;;4996106;28;20233;-81
2021/10/21 04:49:15;;;;;;;2.83;0.50;;;13.00;99.90;;;;;;4998506;28;20257;-81
2021/10/21 04:51:42;;;;;;;1.60;0.70;;;13.00;99.90;;;;;;4997390;28;20269;-82
2021/10/21 04:54:08;;;;;;;1.90;0.50;;;12.90;99.90;;;;;;4997741;28;20202;-81
2021/10/21 04:56:33;;;;;;;1.73;0.47;;;13.00;99.90;;;;;;4998693;28;20198;-81
2021/10/21 04:58:59;;;;;;;3.07;0.90;;;13.00;99.90;;;;;;4994789;28;20210;-81
2021/10/21 05:01:24;;;;;;;4.33;0.60;;;12.90;99.90;;;;;;4996787;28;20641;-81
2021/10/21 05:03:50;;;;;;;1.50;0.57;;;12.90;99.90;;;;;;4993799;28;20199;-81
2021/10/21 05:06:16;;;;;;;1.43;0.60;;;13.00;99.90;;;;;;4994214;28;20187;-81
2021/10/21 05:08:42;;;;;;;2.70;0.60;;;12.90;99.90;;;;;;4995306;28;20187;-81
2021/10/21 05:11:08;;;;;;;4.70;0.50;;;12.90;99.90;;;;;;4994378;28;20645;-80
2021/10/21 05:13:34;;;;;;;3.43;0.53;;;12.90;99.90;;;;;;4996968;28;20210;-82
2021/10/21 05:16:00;;;;;;;1.90;0.60;;;12.90;99.90;;;;;;4998302;28;20191;-81
2021/10/21 05:18:26;;;;;;;2.87;1.10;;;12.90;99.90;;;;;;4997580;28;20210;-80
2021/10/21 05:20:51;;;;;;;5.33;0.90;;;12.90;99.90;;;;;;4997506;28;20174;-81
2021/10/21 05:23:18;;;;;;;3.00;0.73;;;12.90;99.90;;;;;;5001254;28;20315;-81
2021/10/21 05:25:45;;;;;;;4.63;0.70;;;12.90;99.90;;;;;;5004329;28;20225;-81
2021/10/21 05:28:11;;;;;;;4.13;0.93;;;12.90;99.90;;;;;;5003752;28;20188;-80
2021/10/21 05:30:37;;;;;;;4.20;0.90;;;12.80;99.90;;;;;;5002158;28;20190;-81
2021/10/21 05:33:03;;;;;;;4.80;0.90;;;12.80;99.90;;;;;;4997870;28;20254;-81
2021/10/21 05:35:30;;;;;;;4.93;1.30;;;12.80;99.90;;;;;;4999162;28;20292;-81
2021/10/21 05:37:56;;;;;;;5.50;0.80;;;12.80;99.90;;;;;;4997814;28;20185;-81
2021/10/21 05:40:22;;;;;;;5.77;1.60;;;12.80;99.90;;;;;;4998715;28;20189;-81
2021/10/21 05:42:48;;;;;;;3.63;1.20;;;12.70;99.90;;;;;;4999194;28;20543;-81
2021/10/21 05:45:14;;;;;;;5.83;1.00;;;12.70;99.90;;;;;;4997565;28;20687;-80
2021/10/21 05:47:41;;;;;;;6.17;0.87;;;12.80;99.90;;;;;;4998070;28;20178;-80
2021/10/21 05:50:09;;;;;;;4.57;1.30;;;12.70;99.90;;;;;;4998032;28;20237;-81
2021/10/21 05:52:38;;;;;;;4.53;1.20;;;12.70;99.90;;;;;;4997014;28;20178;-81
2021/10/21 05:55:06;;;;;;;7.77;1.17;;;12.70;99.90;;;;;;4996229;28;20211;-81
2021/10/21 05:57:31;;;;;;;8.53;1.03;;;12.70;99.90;;;;;;5000908;28;20194;-81
2021/10/21 05:59:57;;;;;;;5.90;1.23;;;12.70;99.90;;;;;;5000646;28;20202;-80
2021/10/21 06:02:23;;;;;;;4.77;1.00;;;12.70;99.90;;;;;;5002144;28;20552;-81
2021/10/21 06:04:48;;;;;;;6.60;1.20;;;12.70;99.90;;;;;;5000401;28;20209;-79
2021/10/21 06:07:14;;;;;;;2.67;0.90;;;12.70;99.90;;;;;;5002994;28;20209;-82
2021/10/21 06:09:41;;;;;;;6.07;1.30;;;12.70;99.90;;;;;;5003229;28;20200;-81
2021/10/21 06:12:07;;;;;;;8.37;1.17;;;12.70;99.90;;;;;;4999303;28;20180;-81
2021/10/21 06:14:33;;;;;;;4.20;1.10;;;12.70;99.90;;;;;;5002043;28;20694;-82
2021/10/21 06:16:59;;;;;;;6.53;0.97;;;12.70;99.90;;;;;;5002163;28;20243;-82
2021/10/21 06:19:25;;;;;;;3.70;0.70;;;12.70;99.90;;;;;;4999496;28;20224;-81
2021/10/21 06:21:57;;;;;;;4.40;0.90;;;12.70;99.90;;;;;;5000118;28;20641;-81
2021/10/21 06:24:26;;;;;;;5.80;1.20;;;12.70;99.90;;;;;;4999811;28;20197;-81
2021/10/21 06:26:53;;;;;;;6.27;1.53;;;12.70;99.90;;;;;;4999344;28;20182;-81
2021/10/21 06:29:19;;;;;;;6.80;0.97;;;12.70;99.90;;;;;;4999642;28;20182;-81
2021/10/21 06:31:48;;;;;;;5.57;1.53;;;12.70;99.90;;;;;;4999956;28;20243;-81
2021/10/21 06:34:14;;;;;;;5.73;1.57;;;12.70;99.90;;;;;;4998915;28;20243;-81
2021/10/21 06:36:39;;;;;;;6.93;1.30;;;12.70;99.90;;;;;;4998821;28;20206;-81
2021/10/21 06:39:05;;;;;;;3.70;0.87;;;12.70;99.90;;;;;;4998971;28;20206;-81
2021/10/21 06:41:31;;;;;;;4.63;1.10;;;12.80;99.90;;;;;;5000392;28;20179;-81
2021/10/21 06:43:56;;;;;;;6.83;1.20;;;12.80;99.90;;;;;;4997888;28;20200;-81
2021/10/21 06:46:22;;;;;;;5.07;1.10;;;12.80;99.90;;;;;;4999146;28;20171;-81
2021/10/21 06:48:49;;;;;;;6.13;1.40;;;12.80;99.90;;;;;;4998453;28;20193;-81
2021/10/21 06:51:15;;;;;;;9.53;1.03;;;12.80;99.90;;;;;;4999023;28;20598;-81
2021/10/21 06:53:40;;;;;;;4.60;1.23;;;12.90;99.90;;;;;;4997876;28;20200;-81
2021/10/21 06:56:06;;;;;;;7.00;1.50;;;12.80;99.90;;;;;;4999020;28;20185;-81
2021/10/21 06:58:33;;;;;;;3.93;1.00;;;12.90;99.90;;;;;;4998186;28;20688;-81
2021/10/21 07:00:59;;;;;;;6.80;1.20;;;12.90;99.90;;;;;;4999199;28;20179;-79
2021/10/21 07:03:25;;;;;;;4.30;0.90;;;12.90;99.90;;;;;;4998585;28;20186;-83
2021/10/21 07:05:53;;;;;;;6.10;1.87;;;12.90;99.90;;;;;;5001559;28;20178;-82
2021/10/21 07:08:20;;;;;;;9.53;1.20;;;13.00;99.90;;;;;;5001535;28;20187;-82
2021/10/21 07:10:46;;;;;;;5.00;1.17;;;13.00;99.90;;;;;;4999935;28;20221;-82
2021/10/21 07:13:12;;;;;;;8.93;1.20;;;13.00;99.90;;;;;;5001627;28;20182;-82
2021/10/21 07:15:38;;;;;;;2.83;0.93;;;13.10;99.90;;;;;;4999504;28;20182;-81
2021/10/21 07:18:04;;;;;;;5.50;0.90;;;13.10;99.90;;;;;;4999186;28;20212;-81
2021/10/21 07:20:30;;;;;;;5.10;1.00;;;13.00;99.90;;;;;;5001989;28;20664;-82
2021/10/21 07:22:56;;;;;;;4.30;0.97;;;13.10;99.90;;;;;;5001413;28;20190;-82
2021/10/21 07:25:23;;;;;;;6.57;1.17;;;13.10;99.90;;;;;;4999618;28;20620;-78
2021/10/21 07:27:49;;;;;;;3.83;1.03;;;13.10;99.90;;;;;;4996649;28;20180;-82
2021/10/21 07:30:16;;;;;;;6.70;1.30;;;13.00;99.90;;;;;;4999572;28;20173;-81
2021/10/21 07:32:42;;;;;;;7.07;1.20;;;13.10;99.90;;;;;;4998116;28;20187;-81
2021/10/21 07:35:08;;;;;;;7.43;1.37;;;13.10;99.90;;;;;;5000081;28;20218;-81
2021/10/21 07:37:34;;;;;;;7.87;1.40;;;13.10;99.90;;;;;;4998835;28;20190;-81
2021/10/21 07:40:00;;;;;;;4.07;1.10;;;13.10;99.90;;;;;;4995998;28;20206;-80
2021/10/21 07:42:26;;;;;;;6.80;1.17;;;13.00;99.90;;;;;;4996923;28;20205;-81
2021/10/21 07:44:51;;;;;;;4.17;0.97;;;13.00;99.90;;;;;;4998004;28;20218;-81
2021/10/21 07:47:18;;;;;;;7.97;1.00;;;13.00;99.90;;;;;;4999194;28;20182;-81
2021/10/21 07:49:46;;;;;;;4.77;1.10;;;13.00;99.90;;;;;;4997054;28;20174;-81
2021/10/21 07:52:16;;;;;;;6.17;1.20;;;13.00;99.90;;;;;;5021824;22;20246;-78
2021/10/21 07:54:42;;;;;;;6.50;1.13;;;13.10;99.90;;;;;;5018991;28;20178;-79
2021/10/21 07:57:07;;;;;;;5.67;1.10;;;13.10;99.90;;;;;;5019710;28;20266;-79
2021/10/21 07:59:34;;;;;;;4.30;1.00;;;13.10;99.90;;;;;;5012905;28;20213;-79
2021/10/21 08:02:01;;;;;;;7.03;1.33;;;13.20;99.90;;;;;;5023929;28;20202;-79
2021/10/21 08:04:27;;;;;;;6.33;1.00;;;13.30;99.90;;;;;;5022951;28;20193;-80
2021/10/21 08:06:53;;;;;;;5.30;1.13;;;13.30;99.90;;;;;;5018186;28;20191;-79
2021/10/21 08:09:19;;;;;;;3.93;0.93;;;13.30;99.90;;;;;;5015153;28;20529;-79
2021/10/21 08:11:51;;;;;;;5.10;1.00;;;13.30;99.90;;;;;;5022872;28;20284;-79
2021/10/21 08:14:17;;;;;;;5.13;1.40;;;13.30;99.90;;;;;;5024547;28;20155;-79
2021/10/21 08:16:43;;;;;;;3.67;1.30;;;13.20;99.90;;;;;;5020424;28;20179;-79
2021/10/21 08:19:08;;;;;;;6.47;0.90;;;13.20;99.90;;;;;;5003863;28;20204;-78
2021/10/21 08:21:35;;;;;;;5.40;1.23;;;13.30;99.90;;;;;;5018661;28;20205;-79
2021/10/21 08:24:05;;;;;;;3.80;1.00;;;13.40;99.90;;;;;;5022070;28;20205;-78
2021/10/21 08:26:30;;;;;;;6.07;1.27;;;13.40;99.90;;;;;;5023657;28;20246;-79
2021/10/21 08:28:57;;;;;;;8.60;1.33;;;13.50;99.90;;;;;;5023056;28;20649;-78
2021/10/21 08:31:23;;;;;;;4.33;1.20;;;13.50;99.90;;;;;;5023160;28;20247;-79
2021/10/21 08:33:49;;;;;;;5.17;1.10;;;13.50;99.90;;;;;;5023450;28;20181;-79
2021/10/21 08:36:20;;;;;;;4.30;0.80;;;13.50;99.90;;;;;;5023556;28;20291;-80
2021/10/21 08:38:50;;;;;;;3.63;0.87;;;13.60;99.90;;;;;;5022710;28;20244;-79
2021/10/21 08:41:16;;;;;;;6.33;1.00;;;13.70;99.90;;;;;;5012767;28;20201;-79
2021/10/21 08:43:43;;;;;;;3.90;0.70;;;13.70;99.90;;;;;;5023873;28;20177;-79
2021/10/21 08:46:23;;;;;;;4.00;0.80;;;13.80;99.90;;;;;;5020247;28;20177;-79
2021/10/21 08:48:55;;;;;;;3.17;0.80;;;13.80;99.90;;;;;;5017422;28;20182;-79
2021/10/21 08:51:21;;;;;;;2.23;0.57;;;13.80;99.90;;;;;;5021632;28;20205;-78
2021/10/21 08:53:47;;;;;;;5.30;0.87;;;13.80;99.90;;;;;;5020708;28;20244;-79
2021/10/21 08:56:12;;;;;;;4.13;0.77;;;13.80;99.90;;;;;;5016238;28;20637;-79
2021/10/21 08:58:38;;;;;;;3.67;0.63;;;13.80;99.90;;;;;;5000549;28;20199;-79
2021/10/21 09:01:10;;;;;;;7.77;1.83;;;13.80;99.90;;;;;;5018650;28;20178;-79
2021/10/21 09:09:21;;;;;;;5.23;1.07;;;13.90;99.90;;;;;;5021318;28;20179;-79
2021/10/21 09:12:08;;;;;;;3.23;0.80;;;14.00;99.90;;;;;;4995877;28;20247;-79
2021/10/21 09:14:40;;;;;;;5.23;1.10;;;13.90;99.90;;;;;;5020142;28;20182;-79
2021/10/21 09:17:08;;;;;;;5.63;1.00;;;14.00;99.90;;;;;;5017571;28;20167;-79
2021/10/21 09:19:35;;;;;;;5.30;0.80;;;14.00;99.90;;;;;;5022187;28;20191;-79
2021/10/21 09:22:02;;;;;;;6.13;1.00;;;14.00;99.90;;;;;;5007395;28;20293;-79
2021/10/21 09:24:35;;;;;;;4.77;1.43;;;13.90;99.90;;;;;;5019820;28;20170;-79
2021/10/21 09:27:09;;;;;;;6.23;0.90;;;13.90;99.90;;;;;;5019817;28;20160;-79
2021/10/21 09:29:50;;;;;;;6.07;0.87;;;13.80;99.90;;;;;;4998663;28;20242;-79
2021/10/21 09:32:18;;;;;;;3.33;0.80;;;13.80;99.90;;;;;;5000581;28;20251;-79
2021/10/21 09:34:49;;;;;;;3.10;0.90;;;13.80;99.90;;;;;;5025334;28;20181;-80
2021/10/21 09:37:17;;;;;;;4.17;0.73;;;13.90;99.90;;;;;;4998037;28;20197;-79
2021/10/21 09:39:52;;;;;;;6.17;1.23;;;13.90;99.90;;;;;;5025067;28;20240;-79
2021/10/21 09:42:25;;;;;;;4.03;0.67;;;13.80;99.90;;;;;;4997661;28;20187;-79
2021/10/21 09:45:18;;;;;;;3.43;0.77;;;13.80;99.90;;;;;;5014650;28;20239;-80
2021/10/21 09:47:46;;;;;;;3.83;0.70;;;13.80;99.90;;;;;;5016856;28;20174;-80
2021/10/21 09:50:36;;;;;;;3.97;0.80;;;13.80;99.90;;;;;;5030246;28;20239;-79
2021/10/21 09:53:14;;;;;;;4.77;0.70;;;13.80;99.90;;;;;;5029082;28;20206;-80
2021/10/21 09:55:42;;;;;;;3.10;0.97;;;13.70;99.90;;;;;;5017042;28;20205;-79
2021/10/21 09:58:11;;;;;;;2.87;0.80;;;13.80;99.90;;;;;;5025539;28;20183;-80
2021/10/21 10:00:39;;;;;;;5.13;0.70;;;13.90;99.90;;;;;;5024639;28;20178;-79
2021/10/21 10:03:30;;;;;;;3.93;0.80;;;13.90;99.90;;;;;;5014982;28;20267;-79
2021/10/21 10:05:57;;;;;;;10.27;0.97;;;13.80;99.90;;;;;;5013506;28;20193;-79
2021/10/21 10:08:24;;;;;;;3.53;0.73;;;13.90;99.90;;;;;;5008670;28;20175;-80
2021/10/21 10:10:52;;;;;;;2.23;0.60;;;13.90;99.90;;;;;;5026867;28;20175;-79
2021/10/21 10:13:19;;;;;;;3.87;0.50;;;13.90;99.90;;;;;;5026608;28;20177;-79
2021/10/21 10:15:47;;;;;;;2.33;0.50;;;13.90;99.90;;;;;;5027856;28;20183;-79
2021/10/21 10:18:27;;;;;;;1.93;0.43;;;13.90;99.90;;;;;;5025923;28;20183;-79
2021/10/21 10:21:18;;;;;;;3.47;0.70;;;13.90;99.90;;;;;;5026484;28;20151;-79
2021/10/21 10:23:52;;;;;;;2.23;0.43;;;14.00;99.90;;;;;;5024647;28;20159;-79
2021/10/21 10:26:47;;;;;;;2.57;0.50;;;14.00;99.90;;;;;;5002186;28;20708;-79
2021/10/21 10:29:36;;;;;;;2.73;0.50;;;14.00;99.90;;;;;;5011194;28;20179;-79
2021/10/21 10:32:04;;;;;;;3.23;0.60;;;14.10;99.90;;;;;;5024538;28;20661;-80
2021/10/21 10:34:33;;;;;;;2.50;0.50;;;14.10;99.90;;;;;;5027566;28;20685;-79
2021/10/21 10:37:15;;;;;;;4.27;0.80;;;14.00;99.90;;;;;;5025693;28;20182;-79
2021/10/21 10:39:51;;;;;;;2.23;0.50;;;14.10;99.90;;;;;;5024801;28;20198;-79
2021/10/21 10:42:37;;;;;;;2.47;0.40;;;14.30;99.90;;;;;;5024926;28;20228;-79
2021/10/21 10:45:07;;;;;;;1.40;0.50;;;14.30;99.90;;;;;;5026705;28;20167;-79
2021/10/21 10:47:44;;;;;;;4.00;0.50;;;14.40;99.90;;;;;;4993821;28;20177;-79
2021/10/21 10:50:22;;;;;;;1.73;0.80;;;14.40;99.90;;;;;;5016074;28;20249;-80
2021/10/21 10:52:56;;;;;;;1.80;0.77;;;14.40;99.90;;;;;;5001899;28;20218;-80
2021/10/21 10:55:42;;;;;;;6.00;0.97;;;14.50;99.90;;;;;;5001655;28;20180;-79
2021/10/21 10:58:15;;;;;;;1.90;0.50;;;14.60;99.90;;;;;;5015787;28;20187;-80
2021/10/21 11:00:48;;;;;;;3.07;0.90;;;14.70;99.90;;;;;;4999029;28;20199;-80
2021/10/21 11:03:29;;;;;;;3.40;0.77;;;14.70;99.90;;;;;;5005861;28;20172;-79
2021/10/21 11:05:57;;;;;;;2.20;0.60;;;14.80;99.90;;;;;;4996884;28;20567;-79
2021/10/21 11:09:03;;;;;;;3.60;0.73;;;14.90;99.90;;;;;;4994132;28;20255;-79
2021/10/21 11:11:49;;;;;;;6.40;0.80;;;14.90;99.90;;;;;;4989589;28;20192;-80
2021/10/21 11:14:16;;;;;;;5.87;0.90;;;14.80;99.90;;;;;;4988411;28;20172;-79
2021/10/21 11:16:49;;;;;;;1.53;0.50;;;14.90;99.90;;;;;;4992039;28;20176;-78
2021/10/21 11:19:46;;;;;;;2.77;0.83;;;15.00;99.90;;;;;;5004054;28;20200;-80
2021/10/21 11:22:37;;;;;;;1.90;0.50;;;15.10;99.90;;;;;;5003993;28;20192;-79
2021/10/21 11:25:05;;;;;;;2.63;0.70;;;15.10;99.90;;;;;;5023710;28;20184;-79
2021/10/21 11:27:42;;;;;;;2.57;0.70;;;15.20;99.90;;;;;;5017398;28;20172;-80
2021/10/21 11:30:13;;;;;;;2.47;0.50;;;15.20;99.90;;;;;;5010883;28;20661;-80
2021/10/21 11:32:40;;;;;;;2.33;0.90;;;15.20;99.90;;;;;;5027393;28;20206;-79
2021/10/21 11:35:27;;;;;;;1.70;0.60;;;15.30;99.90;;;;;;5025335;28;20183;-79
2021/10/21 11:37:54;;;;;;;2.60;0.50;;;15.30;99.90;;;;;;5025847;28;20190;-79
2021/10/21 11:40:31;;;;;;;2.70;0.70;;;15.30;99.90;;;;;;5026099;28;20194;-79
2021/10/21 11:43:04;;;;;;;5.50;0.93;;;15.30;99.90;;;;;;5015401;28;20223;-80
2021/10/21 11:45:34;;;;;;;2.17;0.50;;;15.40;99.90;;;;;;5021646;28;20266;-80
2021/10/21 11:48:06;;;;;;;2.30;0.60;;;15.30;99.90;;;;;;5004415;28;20551;-79
2021/10/21 11:50:33;;;;;;;2.70;0.50;;;15.30;99.90;;;;;;5015528;28;20198;-80
2021/10/21 11:52:59;;;;;;;3.40;0.67;;;15.20;99.90;;;;;;5002633;28;20253;-79
2021/10/21 11:55:28;;;;;;;3.20;1.00;;;15.30;99.90;;;;;;5019039;28;20226;-80
2021/10/21 11:58:07;;;;;;;2.87;0.67;;;15.30;99.90;;;;;;5005745;28;20259;-79
2021/10/21 12:00:32;;;;;;;3.50;0.70;;;15.30;99.90;;;;;;5019749;28;20198;-80
2021/10/21 12:03:00;;;;;;;5.47;0.90;;;15.30;99.90;;;;;;5016825;28;20231;-79
2021/10/21 12:05:28;;;;;;;3.17;1.00;;;15.40;99.90;;;;;;5014280;28;20167;-80
2021/10/21 12:07:55;;;;;;;3.93;0.93;;;15.50;99.90;;;;;;5021631;28;20185;-80
2021/10/21 12:10:25;;;;;;;2.97;0.80;;;15.60;99.90;;;;;;5022819;28;20232;-79
2021/10/21 12:12:51;;;;;;;4.20;0.77;;;15.60;99.90;;;;;;5008789;28;20242;-80
2021/10/21 12:15:19;;;;;;;4.00;1.30;;;15.40;99.90;;;;;;5022961;28;20175;-79
2021/10/21 12:17:46;;;;;;;4.40;0.70;;;15.40;99.90;;;;;;5023225;28;20247;-81
2021/10/21 12:20:13;;;;;;;4.10;0.90;;;15.50;99.90;;;;;;5010330;28;20198;-80
2021/10/21 12:22:38;;;;;;;3.30;0.80;;;15.40;99.90;;;;;;5023313;28;20266;-79
2021/10/21 12:25:06;;;;;;;3.30;0.83;;;15.30;99.90;;;;;;5019373;28;20597;-79
2021/10/21 12:27:32;;;;;;;2.07;0.70;;;15.40;99.90;;;;;;5013047;28;20198;-80
2021/10/21 12:30:06;;;;;;;4.77;0.80;;;15.30;99.90;;;;;;5023041;28;20179;-80
2021/10/21 12:32:32;;;;;;;3.17;1.07;;;15.40;99.90;;;;;;5023524;28;20562;-79
2021/10/21 12:35:09;;;;;;;2.90;0.80;;;15.50;99.90;;;;;;5008246;28;20711;-79
2021/10/21 12:37:41;;;;;;;2.83;0.63;;;15.50;99.90;;;;;;5016932;28;20178;-79
2021/10/21 12:40:25;;;;;;;2.60;0.80;;;15.50;99.90;;;;;;5008839;28;20203;-80
2021/10/21 12:42:50;;;;;;;2.07;0.60;;;15.60;99.90;;;;;;5022220;28;20258;-79
2021/10/21 12:45:23;;;;;;;2.93;1.10;;;15.60;99.90;;;;;;5008725;28;20206;-79
2021/10/21 12:47:51;;;;;;;1.97;0.70;;;15.60;99.90;;;;;;4991926;28;20172;-79
2021/10/21 12:50:22;;;;;;;2.13;0.83;;;15.70;99.90;;;;;;4994340;28;20266;-79
2021/10/21 12:52:56;;;;;;;2.93;0.60;;;15.70;99.90;;;;;;4992283;28;20215;-79
2021/10/21 12:55:24;;;;;;;1.97;0.60;;;15.70;99.90;;;;;;4995484;28;20187;-78
2021/10/21 12:58:02;;;;;;;1.83;0.40;;;15.70;99.90;;;;;;4997447;28;20172;-79